Time;durP1;ratioP1;P1;durP2;ratioP2;P2;SDS_P1;SDS_P2;PMS_P1;PMS_P2;Temp;Humidity;BMP_temperature;BMP_pressure;BME280_temperature;BME280_humidity;BME280_pressure;Samples;Min_cycle;Max_cycle;Signal;HPM_P1;HPM_P2
2022/11/06 00:00:49;;;;;;;30.08;17.25;;;;;;;15.37;89.85;99402.92;4153644;83;28479;-84
2022/11/06 00:06:52;;;;;;;30.62;16.67;;;;;;;15.48;88.56;99409.28;4145734;82;28514;-86
2022/11/06 00:12:55;;;;;;;26.60;15.70;;;;;;;15.27;89.70;99417.70;4142920;84;28487;-86
2022/11/06 00:19:00;;;;;;;28.35;15.08;;;;;;;15.22;89.84;99418.46;4144421;84;28496;-86
2022/11/06 00:25:04;;;;;;;24.87;15.30;;;;;;;15.22;90.88;99423.88;4145211;84;28522;-84
2022/11/06 00:31:09;;;;;;;27.95;16.27;;;;;;;14.95;92.50;99429.23;4168447;83;28495;-86
2022/11/06 00:37:11;;;;;;;31.60;17.00;;;;;;;15.21;91.10;99437.14;4146920;84;28526;-85
2022/11/06 00:43:12;;;;;;;29.12;16.23;;;;;;;15.26;89.92;99441.28;4146393;84;28506;-85
2022/11/06 00:49:13;;;;;;;27.80;16.05;;;;;;;15.25;89.69;99428.78;4147896;84;28490;-85
2022/11/06 00:55:15;;;;;;;28.62;15.48;;;;;;;15.33;88.22;99432.41;4215769;83;28511;-85
2022/11/06 01:01:24;;;;;;;29.98;15.70;;;;;;;15.27;88.34;99432.08;4225985;82;28452;-84
2022/11/06 01:07:25;;;;;;;24.70;14.45;;;;;;;14.68;90.74;99440.20;4215015;84;28458;-84
2022/11/06 01:13:27;;;;;;;33.28;15.68;;;;;;;15.18;89.10;99452.55;4220070;83;28456;-84
2022/11/06 01:19:28;;;;;;;29.52;15.90;;;;;;;14.95;90.15;99441.41;4233437;83;28465;-85
2022/11/06 01:25:30;;;;;;;28.38;15.13;;;;;;;14.96;89.74;99437.11;4204635;83;28507;-85
2022/11/06 01:31:35;;;;;;;26.77;14.75;;;;;;;15.01;89.39;99438.52;4100275;85;28492;-87
2022/11/06 01:37:36;;;;;;;22.13;13.68;;;;;;;15.01;89.31;99445.28;4153536;83;28474;-85
2022/11/06 01:43:57;;;;;;;29.05;14.07;;;;;;;14.90;89.85;99433.52;4187104;84;28503;-84
2022/11/06 01:50:04;;;;;;;24.30;13.50;;;;;;;14.90;90.00;99440.80;4241864;83;28506;-84
2022/11/06 01:56:10;;;;;;;22.70;13.22;;;;;;;15.03;88.43;99440.44;4206474;81;28626;-85
2022/11/06 02:02:15;;;;;;;24.85;13.28;;;;;;;14.66;89.71;99445.05;4238333;81;28451;-85
2022/11/06 02:08:20;;;;;;;23.98;12.98;;;;;;;14.82;87.53;99453.41;4254804;81;28498;-84
2022/11/06 02:14:42;;;;;;;23.32;12.98;;;;;;;14.15;90.55;99446.41;4226184;82;28464;-87
2022/11/06 02:21:10;;;;;;;26.15;13.10;;;;;;;14.17;91.32;99453.77;4311521;81;28442;-85
2022/11/06 02:27:15;;;;;;;21.48;12.58;;;;;;;14.93;86.96;99445.71;4297795;81;28497;-86
2022/11/06 02:33:25;;;;;;;24.27;12.45;;;;;;;14.94;87.11;99456.83;4301037;81;28439;-87
2022/11/06 02:39:32;;;;;;;25.75;12.98;;;;;;;14.89;87.13;99467.59;4289780;81;28527;-87
2022/11/06 02:45:37;;;;;;;;;;;;;;;14.90;87.27;99469.23;4277892;81;28504;-87
2022/11/06 02:51:43;;;;;;;24.00;12.03;;;;;;;14.65;90.19;99470.48;4278413;81;20200;-86
2022/11/06 02:57:50;;;;;;;22.60;12.88;;;;;;;14.75;89.20;99464.41;4261752;81;28583;-84
2022/11/06 03:04:02;;;;;;;23.40;12.90;;;;;;;14.89;87.94;99471.14;4216793;83;28499;-85
2022/11/06 03:10:10;;;;;;;21.52;12.03;;;;;;;14.78;88.41;99472.86;4129621;85;28542;-86
2022/11/06 03:16:34;;;;;;;24.10;12.45;;;;;;;14.78;87.94;99466.62;4205861;83;28446;-88
2022/11/06 03:22:50;;;;;;;24.92;12.23;;;;;;;14.58;89.32;99463.89;4180448;85;28467;-86
2022/11/06 03:28:56;;;;;;;23.93;12.40;;;;;;;14.44;89.76;99456.63;4192904;85;28484;-87
2022/11/06 03:35:14;;;;;;;23.20;12.07;;;;;;;14.53;89.51;99454.33;4157668;85;28499;-88
2022/11/06 03:41:27;;;;;;;23.35;12.60;;;;;;;14.53;89.15;99459.73;4141644;83;28870;-87
2022/11/06 03:47:43;;;;;;;24.15;11.80;;;;;;;14.26;91.22;99470.39;4154947;83;28497;-86
2022/11/06 03:53:54;;;;;;;21.68;11.85;;;;;;;14.25;91.13;99478.22;4157509;83;28465;-86
2022/11/06 04:00:00;;;;;;;19.70;11.45;;;;;;;14.31;90.62;99486.69;4182267;84;28522;-86
2022/11/06 04:06:15;;;;;;;22.10;11.47;;;;;;;14.10;92.07;99498.50;4177231;85;34758;-86
2022/11/06 04:18:43;;;;;;;22.50;12.20;;;;;;;14.11;91.56;99493.93;4154752;85;28449;-87
2022/11/06 04:31:45;;;;;;;23.57;12.90;;;;;;;14.23;90.70;99509.55;4197727;84;28468;-84
2022/11/06 04:38:00;;;;;;;22.40;12.80;;;;;;;14.27;89.76;99509.89;4168995;85;28508;-83
2022/11/06 04:44:09;;;;;;;26.62;13.40;;;;;;;14.17;90.08;99510.55;4183815;84;28457;-82
2022/11/06 04:50:11;;;;;;;28.57;13.48;;;;;;;14.17;90.19;99511.35;4178386;83;28538;-82
2022/11/06 04:56:24;;;;;;;22.70;13.05;;;;;;;14.33;89.23;99503.52;4168516;85;28463;-83
2022/11/06 05:02:25;;;;;;;20.95;12.13;;;;;;;14.39;88.94;99507.93;4188263;83;28481;-84
2022/11/06 05:08:26;;;;;;;24.57;12.95;;;;;;;14.29;89.29;99521.28;4200197;84;28562;-83
2022/11/06 05:14:27;;;;;;;24.15;12.65;;;;;;;14.19;89.03;99525.44;4204704;83;28506;-83
2022/11/06 05:20:29;;;;;;;25.95;12.68;;;;;;;14.16;89.06;99526.45;4171084;83;28478;-83
2022/11/06 05:26:30;;;;;;;22.70;12.18;;;;;;;14.20;88.57;99523.57;4245862;82;28467;-83
2022/11/06 05:32:32;;;;;;;22.35;12.25;;;;;;;13.98;90.23;99521.56;4244447;82;28451;-84
2022/11/06 05:38:33;;;;;;;21.35;11.73;;;;;;;13.26;95.75;99527.64;4234343;82;28506;-84
2022/11/06 05:44:34;;;;;;;24.75;12.73;;;;;;;13.92;92.14;99522.00;4245313;82;28468;-84
2022/11/06 05:50:36;;;;;;;24.60;11.78;;;;;;;13.79;93.21;99537.95;4239683;82;28538;-77
2022/11/06 05:56:38;;;;;;;22.40;12.18;;;;;;;13.97;92.52;99551.01;4232210;82;28561;-76
2022/11/06 06:02:40;;;;;;;22.77;12.75;;;;;;;14.01;91.49;99548.65;4207568;84;28527;-77
2022/11/06 06:08:41;;;;;;;25.23;11.78;;;;;;;14.19;90.43;99560.59;4230341;84;28479;-76
2022/11/06 06:14:42;;;;;;;24.72;12.40;;;;;;;14.40;88.49;99565.57;4230946;83;28494;-77
2022/11/06 06:20:44;;;;;;;23.20;12.78;;;;;;;14.42;88.81;99564.79;4230415;83;28466;-87
2022/11/06 06:26:49;;;;;;;26.87;13.03;;;;;;;14.49;88.59;99568.17;4221913;83;28498;-88
2022/11/06 06:32:51;;;;;;;23.05;13.08;;;;;;;14.61;87.51;99571.63;4227280;83;28476;-88
2022/11/06 06:45:16;;;;;;;21.30;12.35;;;;;;;14.66;86.56;99572.23;4217197;83;28517;-87
2022/11/06 06:51:20;;;;;;;28.50;13.15;;;;;;;14.86;85.72;99577.19;4200287;83;28503;-89
2022/11/06 06:57:21;;;;;;;22.13;12.15;;;;;;;15.12;83.21;99601.13;4241328;81;28522;-85
2022/11/06 07:03:22;;;;;;;22.60;12.28;;;;;;;15.17;83.13;99599.33;4313674;81;28491;-80
2022/11/06 07:09:23;;;;;;;23.07;11.43;;;;;;;15.27;82.05;99593.77;4275473;81;28438;-87
2022/11/06 07:15:30;;;;;;;21.40;11.75;;;;;;;15.32;80.91;99602.80;4274431;81;28539;-85
2022/11/06 07:21:32;;;;;;;19.25;11.03;;;;;;;15.21;79.25;99588.81;4253763;82;28455;-89
2022/11/06 07:27:33;;;;;;;20.50;11.08;;;;;;;15.18;79.45;99579.30;4276538;81;28491;-87
2022/11/06 07:33:35;;;;;;;22.62;10.98;;;;;;;15.33;79.76;99587.38;4277776;82;28499;-86
2022/11/06 07:39:36;;;;;;;22.85;11.65;;;;;;;15.45;79.86;99587.25;4265289;82;28506;-87
2022/11/06 07:45:38;;;;;;;26.60;11.90;;;;;;;15.84;78.75;99579.63;4205033;83;28477;-86
2022/11/06 07:51:40;;;;;;;21.17;11.22;;;;;;;15.92;78.17;99577.03;4304482;81;28513;-87
2022/11/06 07:57:41;;;;;;;22.40;11.12;;;;;;;16.08;77.25;99572.60;4195148;83;28545;-87
2022/11/06 08:03:43;;;;;;;22.70;10.08;;;;;;;16.14;76.22;99569.69;4148007;83;28547;-82
2022/11/06 08:09:44;;;;;;;22.77;10.75;;;;;;;16.41;72.71;99569.41;4205907;82;28565;-88
2022/11/06 08:15:45;;;;;;;21.20;9.78;;;;;;;16.52;73.01;99568.42;4204819;83;28521;-89
2022/11/06 08:21:47;;;;;;;21.73;10.82;;;;;;;16.24;72.54;99581.72;4304015;81;28485;-90
2022/11/06 08:27:49;;;;;;;18.50;10.43;;;;;;;16.28;72.47;99580.95;4273207;81;28664;-88
2022/11/06 08:33:52;;;;;;;19.35;10.10;;;;;;;16.02;71.59;99575.24;4304521;81;28535;-89
2022/11/06 08:39:54;;;;;;;21.75;10.78;;;;;;;16.35;71.83;99565.83;4297590;81;28487;-87
2022/11/06 08:45:55;;;;;;;20.12;10.25;;;;;;;16.39;71.58;99568.30;4304550;81;28539;-88
2022/11/06 08:52:10;;;;;;;21.40;10.13;;;;;;;16.33;72.44;99573.41;4302688;81;28477;-89
2022/11/06 08:58:14;;;;;;;20.43;9.88;;;;;;;16.70;70.95;99574.00;4305110;81;28507;-89
2022/11/06 09:04:22;;;;;;;24.43;10.88;;;;;;;16.84;69.57;99564.08;4265049;81;28598;-89
2022/11/06 09:10:25;;;;;;;23.02;12.23;;;;;;;16.12;69.55;99571.01;4296985;81;28483;-90
2022/11/06 09:16:29;;;;;;;20.68;12.05;;;;;;;16.97;69.04;99560.91;4291612;81;28489;-90
2022/11/06 09:22:30;;;;;;;24.85;11.73;;;;;;;17.20;67.36;99564.34;4290318;81;28513;-87
2022/11/06 09:28:33;;;;;;;21.10;12.68;;;;;;;17.04;67.62;99558.55;4273899;81;28563;-88
2022/11/06 09:34:37;;;;;;;24.12;12.58;;;;;;;17.47;67.40;99562.06;4279076;81;28455;-80
2022/11/06 09:41:03;;;;;;;24.70;12.23;;;;;;;17.34;66.73;99577.45;4289737;81;28484;-80
2022/11/06 09:47:19;;;;;;;25.62;13.08;;;;;;;17.47;65.65;99567.49;4278220;81;43297;-78
2022/11/06 09:53:37;;;;;;;22.93;11.75;;;;;;;17.97;64.66;99575.32;4300645;81;28467;-85
2022/11/06 09:59:40;;;;;;;23.18;11.75;;;;;;;17.90;65.05;99569.30;4286130;82;28614;-88
2022/11/06 10:05:43;;;;;;;20.97;11.35;;;;;;;17.74;64.82;99566.51;4257426;82;28459;-86
2022/11/06 10:12:10;;;;;;;20.40;11.53;;;;;;;17.44;64.95;99568.00;4250401;82;28612;-84
2022/11/06 10:18:42;;;;;;;23.27;11.40;;;;;;;17.87;63.74;99563.84;4221968;83;28508;-83
2022/11/06 10:25:07;;;;;;;21.57;10.85;;;;;;;17.98;64.79;99560.07;4204373;83;28535;-83
2022/11/06 10:31:40;;;;;;;19.57;11.18;;;;;;;17.80;63.82;99545.06;4212081;83;28484;-82
2022/11/06 10:37:53;;;;;;;19.65;10.38;;;;;;;17.89;64.88;99537.19;4167516;83;28563;-83
2022/11/06 10:44:00;;;;;;;19.92;10.65;;;;;;;18.33;63.53;99528.35;4221333;83;28508;-77
2022/11/06 10:50:07;;;;;;;20.92;10.65;;;;;;;17.98;63.80;99516.55;4220336;83;28585;-77
2022/11/06 10:56:31;;;;;;;21.35;11.20;;;;;;;17.38;65.25;99509.28;4220826;83;28536;-77
2022/11/06 11:02:38;;;;;;;20.75;11.57;;;;;;;17.19;64.69;99504.85;4225511;82;28476;-90
2022/11/06 11:08:49;;;;;;;21.87;11.15;;;;;;;17.60;63.75;99505.03;4217162;83;28493;-87
2022/11/06 11:15:14;;;;;;;19.57;10.95;;;;;;;18.42;63.08;99494.03;4218808;82;28477;-88
2022/11/06 11:21:23;;;;;;;16.77;10.78;;;;;;;18.23;62.81;99493.23;4217551;83;28470;-90
2022/11/06 11:27:25;;;;;;;24.85;11.45;;;;;;;18.02;62.85;99485.55;4217480;83;28508;-88
2022/11/06 11:33:26;;;;;;;20.97;10.85;;;;;;;18.22;62.02;99475.27;4216787;83;28503;-92
2022/11/06 11:39:38;;;;;;;18.07;10.25;;;;;;;18.23;62.76;99478.27;4229910;83;28462;-90
2022/11/06 11:45:39;;;;;;;21.33;10.03;;;;;;;17.73;63.04;99465.63;4209383;83;28493;-92
2022/11/06 11:51:46;;;;;;;17.65;8.93;;;;;;;17.87;62.01;99463.77;4218769;83;28478;-90
2022/11/06 11:57:52;;;;;;;20.08;9.75;;;;;;;18.03;62.29;99462.72;4219147;83;28480;-88
2022/11/06 12:03:53;;;;;;;23.22;12.37;;;;;;;17.44;63.35;99465.28;4225259;82;28504;-90
2022/11/06 12:09:55;;;;;;;19.27;11.33;;;;;;;17.46;63.12;99457.14;4230231;82;28448;-88
2022/11/06 12:16:00;;;;;;;23.18;11.40;;;;;;;17.19;64.32;99459.47;4229462;82;28516;-89
2022/11/06 12:22:21;;;;;;;19.05;10.98;;;;;;;18.30;63.47;99452.67;4229804;82;28505;-87
2022/11/06 12:28:24;;;;;;;20.12;10.95;;;;;;;17.91;62.88;99446.65;4228520;82;28532;-85
2022/11/06 12:34:58;;;;;;;17.52;10.05;;;;;;;17.98;63.25;99444.45;4198198;82;28496;-88
2022/11/06 12:41:16;;;;;;;20.62;11.03;;;;;;;18.19;61.08;99450.50;4227738;82;28493;-86
2022/11/06 12:47:38;;;;;;;19.80;10.23;;;;;;;18.26;61.71;99444.22;4228660;82;28438;-86
2022/11/06 12:54:20;;;;;;;16.70;10.13;;;;;;;17.58;62.61;99453.36;4196373;82;28477;-85
2022/11/06 13:00:25;;;;;;;17.98;9.33;;;;;;;17.89;63.08;99446.08;4228227;82;28477;-86
2022/11/06 13:07:02;;;;;;;16.27;9.90;;;;;;;17.90;61.36;99453.70;4222593;82;28482;-85
2022/11/06 13:13:42;;;;;;;17.30;9.58;;;;;;;18.17;60.33;99450.77;4222750;83;28480;-86
2022/11/06 13:20:01;;;;;;;18.50;10.25;;;;;;;18.32;60.29;99454.56;4222901;83;28520;-85
2022/11/06 13:26:22;;;;;;;18.70;9.10;;;;;;;17.97;61.42;99458.34;4222111;83;28485;-85
2022/11/06 13:32:26;;;;;;;12.95;7.22;;;;;;;17.45;62.25;99459.59;4219002;83;28469;-86
2022/11/06 13:38:48;;;;;;;16.23;7.97;;;;;;;17.33;61.43;99462.52;4214475;82;28563;-82
2022/11/06 13:44:50;;;;;;;16.45;7.55;;;;;;;17.63;61.95;99450.12;4203765;83;28509;-81
2022/11/06 13:51:03;;;;;;;15.48;7.72;;;;;;;17.52;62.02;99463.41;4224660;83;28512;-82
2022/11/06 13:57:35;;;;;;;13.35;7.15;;;;;;;17.31;61.49;99461.97;4203416;83;28544;-82
2022/11/06 14:04:00;;;;;;;16.25;6.53;;;;;;;17.33;61.11;99457.61;4214751;83;28513;-81
2022/11/06 14:10:03;;;;;;;10.93;5.67;;;;;;;17.00;61.27;99455.03;4218383;83;28522;-81
2022/11/06 14:16:23;;;;;;;9.85;5.37;;;;;;;17.32;60.88;99448.66;4174400;83;28492;-83
2022/11/06 14:22:47;;;;;;;12.15;6.10;;;;;;;16.77;61.51;99439.94;4129563;84;28520;-79
2022/11/06 14:28:48;;;;;;;12.50;5.40;;;;;;;16.83;62.11;99445.13;4159350;83;28577;-79
2022/11/06 14:34:52;;;;;;;10.63;5.25;;;;;;;16.78;61.57;99440.20;4211527;83;28486;-79
2022/11/06 14:40:54;;;;;;;10.48;5.10;;;;;;;16.38;61.27;99432.90;4213455;83;28488;-80
2022/11/06 14:47:04;;;;;;;9.05;4.83;;;;;;;16.53;60.73;99424.84;4167640;83;28546;-80
2022/11/06 14:53:32;;;;;;;11.12;5.10;;;;;;;15.58;61.74;99417.53;4132105;84;28480;-79
2022/11/06 14:59:39;;;;;;;11.48;5.00;;;;;;;15.27;62.87;99416.36;4134001;83;28559;-76
2022/11/06 15:05:40;;;;;;;10.10;4.85;;;;;;;15.13;63.50;99418.62;4302289;81;28457;-77
2022/11/06 15:12:00;;;;;;;9.95;4.42;;;;;;;14.89;63.87;99414.28;4306166;81;28470;-77
2022/11/06 15:18:03;;;;;;;11.55;4.53;;;;;;;15.02;64.22;99400.09;4296058;81;28494;-77
2022/11/06 15:24:24;;;;;;;10.30;5.08;;;;;;;15.01;65.16;99383.56;4272246;82;28498;-78
2022/11/06 15:30:27;;;;;;;8.33;4.33;;;;;;;15.07;65.30;99385.25;4292195;81;28472;-78
2022/11/06 15:36:39;;;;;;;9.33;4.50;;;;;;;14.85;66.85;99387.97;4210932;83;28461;-76
2022/11/06 15:42:42;;;;;;;11.88;5.33;;;;;;;14.94;67.47;99388.34;4280205;82;28487;-78
2022/11/06 15:48:44;;;;;;;10.72;4.87;;;;;;;15.01;67.70;99387.62;4243051;82;28920;-76
2022/11/06 15:54:46;;;;;;;8.88;4.45;;;;;;;15.00;67.29;99398.98;4275988;82;28444;-77
2022/11/06 16:00:48;;;;;;;8.23;4.95;;;;;;;15.10;68.08;99391.53;4280132;81;28474;-78
2022/11/06 16:06:53;;;;;;;11.88;5.00;;;;;;;15.02;69.42;99388.70;4269389;81;28452;-77
2022/11/06 16:12:55;;;;;;;9.35;4.75;;;;;;;15.30;68.86;99388.23;4265099;81;28499;-78
2022/11/06 16:18:56;;;;;;;9.93;4.53;;;;;;;15.22;69.41;99381.09;4278962;82;28622;-76
2022/11/06 16:25:01;;;;;;;10.25;5.50;;;;;;;15.35;68.98;99372.56;4275543;80;28526;-76
2022/11/06 16:31:11;;;;;;;11.15;4.83;;;;;;;15.57;67.73;99360.86;4237616;82;28529;-77
2022/11/06 16:37:26;;;;;;;10.05;5.03;;;;;;;15.50;68.05;99358.88;4276604;81;28513;-78
2022/11/06 16:43:24;;;;;;;10.85;5.20;;;;;;;15.46;68.47;99360.77;4277512;81;28462;-77
2022/11/06 16:49:38;;;;;;;11.80;6.67;;;;;;;15.46;67.98;99361.28;4290906;81;28459;-77
2022/11/06 16:55:40;;;;;;;14.03;7.00;;;;;;;15.60;67.05;99353.56;4269885;81;28884;-76
2022/11/06 17:01:47;;;;;;;14.85;7.47;;;;;;;15.80;66.65;99350.77;4242043;82;28461;-76
2022/11/06 17:08:28;;;;;;;15.15;7.55;;;;;;;15.93;65.77;99346.31;4262890;81;28505;-76
2022/11/06 17:14:31;;;;;;;17.35;8.88;;;;;;;16.01;65.68;99351.79;4269562;82;28471;-76
2022/11/06 17:20:34;;;;;;;18.45;9.35;;;;;;;16.39;64.86;99345.79;4273912;83;28475;-76
2022/11/06 17:26:48;;;;;;;21.48;9.90;;;;;;;16.16;65.52;99344.30;4269754;81;28455;-77
2022/11/06 17:32:51;;;;;;;17.10;9.15;;;;;;;15.92;66.39;99350.63;4263739;82;28498;-77
2022/11/06 17:38:54;;;;;;;18.70;9.80;;;;;;;16.23;66.01;99346.78;4247401;81;28495;-77
2022/11/06 17:44:57;;;;;;;18.12;9.40;;;;;;;16.28;65.84;99346.28;4278252;81;28527;-78
2022/11/06 17:57:18;;;;;;;19.62;10.60;;;;;;;16.45;65.86;99351.53;4254757;81;28535;-76
2022/11/06 18:03:21;;;;;;;20.25;10.85;;;;;;;16.63;65.51;99348.11;4237670;80;28543;-76
2022/11/06 18:09:25;;;;;;;24.18;11.20;;;;;;;16.51;66.07;99341.52;4218462;83;28542;-76
2022/11/06 18:15:26;;;;;;;21.62;11.43;;;;;;;16.44;66.70;99344.48;4218564;83;28944;-76
2022/11/06 18:21:30;;;;;;;23.70;11.45;;;;;;;15.93;68.57;99330.57;4216598;83;28510;-75
2022/11/06 18:27:32;;;;;;;24.05;11.53;;;;;;;16.04;68.36;99326.85;4201249;83;28474;-76
2022/11/06 18:33:34;;;;;;;25.88;12.88;;;;;;;16.12;68.32;99320.95;4184533;83;28466;-76
2022/11/06 18:39:39;;;;;;;26.37;12.45;;;;;;;16.24;68.39;99326.72;4215632;84;28459;-76
2022/11/06 18:45:41;;;;;;;28.70;12.68;;;;;;;16.21;68.42;99328.05;4209593;84;28567;-77
2022/11/06 18:51:44;;;;;;;25.60;12.60;;;;;;;16.31;68.47;99322.69;4186520;84;28451;-76
2022/11/06 18:57:46;;;;;;;27.73;13.58;;;;;;;16.46;68.15;99326.59;4218579;83;28528;-76
2022/11/06 19:03:49;;;;;;;27.20;13.55;;;;;;;16.40;68.47;99320.31;4216884;84;28503;-75
2022/11/06 19:09:50;;;;;;;28.50;13.98;;;;;;;16.09;69.10;99312.52;4234565;84;28524;-75
2022/11/06 19:15:57;;;;;;;30.72;14.53;;;;;;;16.22;69.65;99314.76;4214837;83;28518;-75
2022/11/06 19:21:59;;;;;;;25.72;14.10;;;;;;;16.37;69.54;99307.25;4222351;83;28548;-76
2022/11/06 19:28:01;;;;;;;27.85;13.95;;;;;;;16.20;69.85;99303.36;4188954;84;28459;-85
2022/11/06 19:34:07;;;;;;;32.73;14.87;;;;;;;16.10;70.75;99298.70;4216146;84;28557;-86
2022/11/06 19:40:10;;;;;;;28.07;14.28;;;;;;;16.02;71.21;99297.83;4213873;83;28475;-88
2022/11/06 19:46:13;;;;;;;29.05;13.43;;;;;;;15.85;71.87;99298.75;4216812;83;28479;-87
2022/11/06 19:52:16;;;;;;;32.40;15.60;;;;;;;15.69;72.97;99291.04;4195052;83;28465;-86
2022/11/06 19:58:19;;;;;;;30.25;14.98;;;;;;;14.93;77.82;99289.25;4231444;83;28492;-87
2022/11/06 20:04:22;;;;;;;29.18;15.18;;;;;;;14.88;79.11;99292.16;4268225;81;28483;-85
2022/11/06 20:10:23;;;;;;;30.95;15.50;;;;;;;15.07;79.99;99281.00;4202327;83;28585;-83
2022/11/06 20:16:28;;;;;;;34.85;15.88;;;;;;;14.58;83.12;99280.42;4304764;80;28486;-83
2022/11/06 20:22:29;;;;;;;38.38;15.75;;;;;;;14.46;84.45;99280.02;4321867;80;28524;-83
2022/11/06 20:28:36;;;;;;;30.40;15.95;;;;;;;14.53;85.22;99285.23;4301074;81;28473;-85
2022/11/06 20:35:15;;;;;;;30.15;15.58;;;;;;;14.58;85.05;99281.77;4278719;81;28521;-91
2022/11/06 20:41:20;;;;;;;30.82;16.02;;;;;;;14.07;89.28;99274.61;4275279;81;28481;-94
2022/11/06 20:47:24;;;;;;;30.48;15.85;;;;;;;13.90;91.50;99263.30;4263481;81;28506;-87
2022/11/06 20:53:25;;;;;;;33.83;16.52;;;;;;;13.97;92.97;99253.67;4280249;81;28427;-77
2022/11/06 20:59:29;;;;;;;34.58;16.10;;;;;;;14.52;90.10;99254.36;4253219;82;28594;-80
2022/11/06 21:05:34;;;;;;;28.30;15.60;;;;;;;14.76;87.92;99254.42;4266451;83;28530;-81
2022/11/06 21:11:35;;;;;;;22.85;12.45;;;;;;;14.49;89.83;99252.45;4271744;81;28497;-80
2022/11/06 21:17:41;;;;;;;29.30;15.48;;;;;;;14.06;90.99;99259.45;4229111;83;28501;-78
2022/11/06 21:23:43;;;;;;;31.50;15.13;;;;;;;14.36;90.87;99262.30;4282190;83;28467;-75
2022/11/06 21:29:44;;;;;;;31.80;16.30;;;;;;;14.78;89.99;99259.56;4307395;81;28501;-76
2022/11/06 21:35:46;;;;;;;27.60;14.23;;;;;;;14.81;90.30;99260.44;4355763;81;28518;-76
2022/11/06 21:41:48;;;;;;;32.73;16.40;;;;;;;14.69;89.92;99259.17;4355433;82;28472;-76
2022/11/06 21:47:51;;;;;;;30.92;15.30;;;;;;;14.82;90.73;99240.41;4355506;80;28463;-75
2022/11/06 22:00:14;;;;;;;32.78;15.32;;;;;;;14.68;91.46;99247.23;4355815;80;28464;-76
2022/11/06 22:06:23;;;;;;;27.80;15.32;;;;;;;14.70;91.02;99235.09;4354972;82;28464;-76
2022/11/06 22:12:25;;;;;;;32.67;15.95;;;;;;;14.77;90.11;99232.22;4363346;80;28562;-76
2022/11/06 22:18:28;;;;;;;33.50;16.12;;;;;;;14.59;91.02;99237.41;4373553;80;28507;-77
2022/11/06 22:24:29;;;;;;;32.88;16.50;;;;;;;14.52;91.69;99236.25;4373381;80;28510;-74
2022/11/06 22:30:32;;;;;;;35.03;16.50;;;;;;;14.61;90.96;99235.27;4224122;83;28447;-75
2022/11/06 22:36:35;;;;;;;33.65;16.97;;;;;;;14.50;91.95;99231.64;4218358;83;28492;-75
2022/11/06 22:42:37;;;;;;;37.38;17.55;;;;;;;14.12;94.23;99229.25;4374045;80;28491;-76
2022/11/06 22:48:38;;;;;;;35.78;17.25;;;;;;;13.94;96.24;99237.41;4179145;83;28555;-76
2022/11/06 22:54:39;;;;;;;36.77;17.23;;;;;;;13.34;100.00;99228.89;4302173;81;28581;-76
2022/11/06 23:00:43;;;;;;;35.63;17.23;;;;;;;13.79;97.58;99231.77;4292629;82;28475;-82
2022/11/06 23:06:47;;;;;;;40.23;18.12;;;;;;;13.78;96.65;99217.45;4292819;81;28459;-83
2022/11/06 23:12:50;;;;;;;34.20;16.57;;;;;;;13.33;100.00;99208.35;4285122;81;28558;-84
2022/11/06 23:25:58;;;;;;;42.78;18.90;;;;;;;13.60;100.00;99200.98;4067953;83;28486;-86
2022/11/06 23:46:27;;;;;;;39.35;17.37;;;;;;;14.08;97.77;99197.32;4219737;83;28472;-86
2022/11/06 23:52:36;;;;;;;37.15;17.37;;;;;;;13.94;97.01;99187.41;4183435;83;28487;-85
2022/11/06 23:58:40;;;;;;;34.53;16.67;;;;;;;14.08;96.52;99187.86;4218896;83;28493;-85
